AirNav   Air Wisconsin pilot careers
 
 934 users online  

KNRA Coupeville Naval Outlying Field
Coupeville, Washington, USA

GOING TO COUPEVILLE?


FAA INFORMATION EFFECTIVE 31 JANUARY 2019

Location

FAA Identifier: NRA
Lat/Long: 48-11-00.0000N / 122-38-00.0000W
48-11.000000N / 122-38.000000W
48.1833333 / -122.6333333
(estimated)
Elevation: 199 ft. / 61 m (estimated)
Variation: 19E (2000)
From city: 3 miles SE of COUPEVILLE, WA
Time zone: UTC -8 (UTC -7 during Daylight Saving Time)
Zip code: 98239

Airport Operations

Airport use: Private use, STRICTLY MILITARY USE ONLY.
Activation date: 02/2001
Control tower: no
ARTCC: SEATTLE CENTER
FSS: SEATTLE FLIGHT SERVICE STATION
Attendance: MON-FRI 0800-0001
ATNDD OTHER TIMES BY NOTAM
Wind indicator: yes
Segmented circle: no
Lights: PRIOR REQ. MIRL RY 14/32 OPRS AS RQRD FOR MIL OPNL REQUIREMENTS.

Airport Communications

WX AWOS-3 at OKH (4 nm N): 132.775 (360-675-8431)
WX AWOS-3P at 0S9 (11 nm SW): 119.025 (360-379-1199)
WX AWOS-3PT at AWO (19 nm E): 135.625 (360-435-8045)
WX AWOS-3 at BVS (19 nm NE): 121.125 (360-757-7767)

Nearby radio navigation aids

VOR radial/distance  VOR name  Freq  Var
CVVr116/5.2PENN COVE VOR/DME117.2019E
PAEr298/21.3PAINE VOR/DME110.6020E

 
NDB name  Hdg/Dist  Freq  Var  ID
SKAGIT/BAY VIEW191/19.124016EBVS -... ...- ...
FRIDAY HARBOR125/25.128417EFHR ..-. .... .-.

Airport Services

Runway Information

Runway 14/32

Dimensions: 5400 x 200 ft. / 1646 x 61 m
Surface: concrete
Runway edge lights: medium intensity
RUNWAY 14  RUNWAY 32
Traffic pattern: rightright

Airport Ownership and Management from official FAA records

Ownership: U.S. Navy
Owner: US NAVY
COMMANDING OFFICER ATTN: CODE AOT, 3730 NORTH CHARLES
OAK HARBOR, WA 98278
Phone 360-257-2681/2
Manager: US NAVY
COMMANDING OFFICER ATTN: CODE AOT, 3730 NORTH CHARLES
OAK HARBOR, WA 98278
Phone 360-257-2681/2

Additional Remarks

FULL STOP LNDG NOT AUZD UNLESS EMERGENCY.
WHIDBEY ISLAND NAS (AULT FLD) ATIS AVBL ON FREQ 134.15/280.3.

Instrument Procedures

There are no published instrument procedures at KNRA.

Some nearby airports with instrument procedures:

KOKH - AJ Eisenberg Airport (4 nm N)
KNUW - Whidbey Island Naval Air Station (Ault Field) (10 nm N)
0S9 - Jefferson County International Airport (11 nm SW)
KAWO - Arlington Municipal Airport (19 nm E)
KBVS - Skagit Regional Airport (19 nm NE)
 
Loc | Ops | Rwys | IFR | FBO | Links
Com | Nav | Svcs | Stats | Notes
Area around KNRA (Coupeville Naval Outlying Field)
 
Road maps at: MapQuest Bing Google
 
Aerial photo
WARNING: Photo may not be current or correct
Aerial photo of KNRA (Coupeville Naval Outlying Field)
Taken in June 2006

Do you have a better or more recent aerial photo of Coupeville Naval Outlying Field that you would like to share? If so, please send us your photo.

 
Sectional chart

 
Airport distance calculator
Flying to Coupeville Naval Outlying Field? Find the distance to fly.

From to KNRA

Sunrise and sunset
Times for 23-Feb-2019
 Local
(UTC-8)
 Zulu
(UTC)
Morning civil twilight06:3214:32
Sunrise07:0415:04
Sunset17:4401:44
Evening civil twilight18:1602:16

Current date and time
Zulu (UTC)  24-Feb-2019 00:03:06
Local (UTC-8)  23-Feb-2019 16:03:06
 
METAR
KNUW 
10nm N 
232256Z 15013KT 10SM FEW035 SCT047 BKN080 BKN250 09/01 A3011 RMK SLP195 T00890006
K0S9 
11nm SW 
232355Z AUTO 15006KT 10SM FEW120 07/02 A3005 RMK AO2
KAWO 
19nm E 
232356Z AUTO 13008KT 10SM SCT041 BKN048 OVC060 06/02 A3010 RMK AO2 RAB08E39 SLP197 P0000 60000 T00560022 10072 20039 55007
74S 
19nm N 
SuperAWOS
232339Z AUTO 08008KT 10SM 07/03 A3007
KBVS 
19nm NE 
232355Z AUTO 10009KT 10SM BKN026 BKN033 BKN040 07/02 A3009 RMK A01
TAF
KNUW 
10nm N 
2316/2415 15011KT 9999 VCSH FEW015 SCT070 BKN110 630209 631106 541809 522709 QNH3005INS TEMPO 2316/2321 15010G20KT 8000 -SHRA BKN008 BKN012 OVC030 FM232200 14014G24KT 9999 VCSH FEW009 SCT015 SCT035 BKN100 BKN200 630209 631106 540109 541008 541809 522709 QNH3009INS TEMPO 2322/2404 14008G18KT 8000 -SHRA BKN008 BKN012 OVC030 BECMG 2404/2405 12008G18KT 9999 VCSH FEW009 SCT015 SCT035 BKN100 BKN200 630209 631106 540109 541008 541809 522709 QNH3007INS TEMPO 2406/2412 VRB06KT 8000 -SHRA BKN008 BKN012 OV
NOTAMs
Click for the latest NOTAMs
NOTAMs are issued by the DoD/FAA and will open in a separate window not controlled by AirNav.

 

 
 

Would you like to see your business listed on this page?

 If your business provides an interesting product or service to pilots, flight crews, aircraft, or users of the Coupeville Naval Outlying Field, you should consider listing it here.  To start the listing process, click on the button below
 
Add a business
 

Other Pages about Coupeville Naval Outlying Field

Update a link
 
Copyright © AirNav, LLC. All rights reserved. Privacy Policy  Contact